Time;durP1;ratioP1;P1;durP2;ratioP2;P2;SDS_P1;SDS_P2;PMS_P1;PMS_P2;Temp;Humidity;BMP_temperature;BMP_pressure;BME280_temperature;BME280_humidity;BME280_pressure;Samples;Min_cycle;Max_cycle;Signal;HPM_P1;HPM_P2
2021/03/27 00:00:41;;;;;;;9.30;8.47;;;11.90;99.90;;;;;;4992717;28;20438;-66
2021/03/27 00:03:28;;;;;;;9.37;8.00;;;11.90;99.90;;;;;;4994386;28;20949;-66
2021/03/27 00:06:03;;;;;;;9.43;8.43;;;11.90;99.90;;;;;;4994120;28;20969;-66
2021/03/27 00:08:37;;;;;;;7.50;6.80;;;11.90;99.90;;;;;;4994194;28;20898;-66
2021/03/27 00:11:18;;;;;;;8.50;7.70;;;11.80;99.90;;;;;;5004894;28;20446;-66
2021/03/27 00:13:56;;;;;;;8.30;7.47;;;11.80;99.90;;;;;;4994104;28;20426;-66
2021/03/27 00:16:45;;;;;;;9.27;7.90;;;11.80;99.90;;;;;;4993807;28;20991;-66
2021/03/27 00:19:22;;;;;;;7.60;6.90;;;11.80;99.90;;;;;;4976991;28;20454;-66
2021/03/27 00:21:52;;;;;;;7.83;7.03;;;11.90;99.90;;;;;;4988048;28;20469;-66
2021/03/27 00:24:56;;;;;;;8.20;6.90;;;11.90;99.90;;;;;;4979032;28;20466;-66
2021/03/27 00:27:49;;;;;;;6.03;5.47;;;11.80;99.90;;;;;;4974328;28;20552;-66
2021/03/27 00:30:21;;;;;;;6.83;6.23;;;11.80;99.90;;;;;;4975983;28;20473;-66
2021/03/27 00:32:52;;;;;;;7.03;6.20;;;11.80;99.90;;;;;;4979702;28;20442;-66
2021/03/27 00:35:32;;;;;;;7.40;6.40;;;11.70;99.90;;;;;;4985572;28;20489;-66
2021/03/27 00:38:01;;;;;;;7.17;6.50;;;11.70;99.90;;;;;;4993608;28;20450;-66
2021/03/27 00:40:30;;;;;;;7.30;6.60;;;11.70;99.90;;;;;;4976035;28;20447;-66
2021/03/27 00:43:28;;;;;;;7.00;6.23;;;11.60;99.90;;;;;;4985431;28;20450;-67
2021/03/27 00:46:01;;;;;;;6.73;5.70;;;11.60;99.90;;;;;;4982349;28;20472;-67
2021/03/27 00:48:33;;;;;;;7.70;7.00;;;11.50;99.90;;;;;;4993408;28;20537;-66
2021/03/27 00:51:03;;;;;;;6.87;6.27;;;11.50;99.90;;;;;;4991745;28;20534;-65
2021/03/27 00:53:40;;;;;;;9.67;6.13;;;11.50;99.90;;;;;;4984110;28;20797;-66
2021/03/27 00:56:29;;;;;;;6.37;5.77;;;11.40;99.90;;;;;;4993640;28;20801;-66
2021/03/27 00:59:00;;;;;;;9.43;6.40;;;11.40;99.90;;;;;;4991891;28;20862;-66
2021/03/27 01:01:29;;;;;;;8.83;6.43;;;11.40;99.90;;;;;;4992833;28;20451;-65
2021/03/27 01:03:59;;;;;;;6.00;5.40;;;11.40;99.90;;;;;;4993215;28;20791;-66
2021/03/27 01:06:42;;;;;;;7.33;6.70;;;11.30;99.90;;;;;;4993149;28;20431;-66
2021/03/27 01:09:10;;;;;;;8.33;6.30;;;11.20;99.90;;;;;;4991127;28;20493;-65
2021/03/27 01:12:01;;;;;;;7.00;6.33;;;11.10;99.90;;;;;;4993225;28;20577;-67
2021/03/27 01:14:30;;;;;;;6.20;5.60;;;10.90;99.90;;;;;;4983750;28;20534;-65
2021/03/27 01:17:00;;;;;;;8.57;6.63;;;10.90;99.90;;;;;;4992782;28;20431;-66
2021/03/27 01:19:31;;;;;;;7.30;6.27;;;10.80;99.90;;;;;;5007893;23;20594;-61
2021/03/27 01:21:58;;;;;;;5.80;5.30;;;10.70;99.90;;;;;;4986585;28;20462;-63
2021/03/27 01:24:28;;;;;;;7.10;6.30;;;10.70;99.90;;;;;;4992548;28;20459;-62
2021/03/27 01:27:05;;;;;;;6.50;5.90;;;10.60;99.90;;;;;;4992816;28;20855;-62
2021/03/27 01:30:00;;;;;;;7.57;6.33;;;10.60;99.90;;;;;;4984992;28;20463;-62
2021/03/27 01:32:51;;;;;;;7.47;6.33;;;10.60;99.90;;;;;;4986753;28;20443;-61
2021/03/27 01:35:28;;;;;;;6.70;6.20;;;10.60;99.90;;;;;;4989137;28;20457;-63
2021/03/27 01:37:56;;;;;;;6.50;5.90;;;10.60;99.90;;;;;;4992210;28;20465;-63
2021/03/27 01:40:59;;;;;;;7.37;6.67;;;10.60;99.90;;;;;;4979061;28;20435;-62
2021/03/27 01:43:33;;;;;;;6.00;5.50;;;10.60;99.90;;;;;;4949107;28;20450;-63
2021/03/27 01:46:37;;;;;;;6.50;5.70;;;10.60;99.90;;;;;;4992612;28;20552;-62
2021/03/27 01:49:34;;;;;;;7.70;7.00;;;10.50;99.90;;;;;;4978439;28;20459;-63
2021/03/27 01:52:08;;;;;;;7.83;7.03;;;10.20;99.90;;;;;;4989901;28;20473;-62
2021/03/27 01:54:39;;;;;;;7.77;6.97;;;10.10;99.90;;;;;;4984664;28;20438;-62
2021/03/27 01:57:04;;;;;;;7.70;6.97;;;10.00;99.90;;;;;;4992151;28;20434;-63
2021/03/27 01:59:37;;;;;;;7.87;7.07;;;9.90;99.90;;;;;;4982984;28;20450;-61
2021/03/27 02:02:15;;;;;;;6.73;6.10;;;9.90;99.90;;;;;;4991993;28;20167;-63
2021/03/27 02:04:51;;;;;;;7.37;6.70;;;9.90;99.90;;;;;;4990693;28;20462;-61
2021/03/27 02:07:51;;;;;;;8.07;7.07;;;9.90;99.90;;;;;;4991910;28;20472;-62
2021/03/27 02:10:25;;;;;;;10.37;8.10;;;9.90;99.90;;;;;;4937498;28;20522;-62
2021/03/27 02:13:27;;;;;;;9.17;7.00;;;9.80;99.90;;;;;;4988512;28;20425;-62
2021/03/27 02:16:16;;;;;;;8.43;7.63;;;9.80;99.90;;;;;;4984240;28;20478;-61
2021/03/27 02:19:03;;;;;;;8.83;7.33;;;9.80;99.90;;;;;;4946457;28;20864;-63
2021/03/27 02:22:18;;;;;;;9.03;8.17;;;9.70;99.90;;;;;;4985332;28;20439;-61
2021/03/27 02:25:10;;;;;;;9.00;8.10;;;9.60;99.90;;;;;;4976449;28;20510;-62
2021/03/27 02:28:04;;;;;;;10.73;9.57;;;9.60;99.90;;;;;;4991469;28;20537;-63
2021/03/27 02:30:35;;;;;;;9.10;8.20;;;9.50;99.90;;;;;;4977521;28;20427;-61
2021/03/27 02:33:32;;;;;;;10.63;9.37;;;9.50;99.90;;;;;;4991196;28;20784;-61
2021/03/27 02:36:27;;;;;;;10.80;8.80;;;9.50;99.90;;;;;;4991729;28;20507;-61
2021/03/27 02:39:14;;;;;;;11.17;9.00;;;9.40;99.90;;;;;;4989964;28;20446;-64
2021/03/27 02:42:04;;;;;;;10.77;8.60;;;9.40;99.90;;;;;;4991425;28;20431;-61
2021/03/27 02:44:33;;;;;;;13.50;8.80;;;9.40;99.90;;;;;;4967814;28;20965;-62
2021/03/27 02:47:23;;;;;;;11.10;8.20;;;9.40;99.90;;;;;;4991301;28;20431;-62
2021/03/27 02:49:51;;;;;;;10.83;9.17;;;9.40;99.90;;;;;;4987804;28;20510;-62
2021/03/27 02:52:31;;;;;;;10.27;8.83;;;9.30;99.90;;;;;;4991017;28;20439;-61
2021/03/27 02:55:23;;;;;;;10.40;9.30;;;9.30;99.90;;;;;;4990844;28;20465;-62
2021/03/27 02:58:16;;;;;;;10.13;8.37;;;9.20;99.90;;;;;;4990579;28;20462;-63
2021/03/27 03:01:08;;;;;;;9.83;8.20;;;9.30;99.90;;;;;;4988372;28;20464;-62
2021/03/27 03:03:51;;;;;;;8.93;8.03;;;9.20;99.90;;;;;;4991022;28;20500;-62
2021/03/27 03:06:46;;;;;;;9.17;8.20;;;9.10;99.90;;;;;;4991090;28;20804;-61
2021/03/27 03:09:46;;;;;;;8.17;7.37;;;9.10;99.90;;;;;;4988934;28;20466;-62
2021/03/27 03:12:20;;;;;;;8.60;7.80;;;9.10;99.90;;;;;;4965422;28;20447;-62
2021/03/27 03:14:52;;;;;;;8.03;7.23;;;9.10;99.90;;;;;;4990809;28;20433;-62
2021/03/27 03:17:45;;;;;;;8.20;6.93;;;9.00;99.90;;;;;;4990356;28;20460;-61
2021/03/27 03:20:49;;;;;;;9.87;8.33;;;9.00;99.90;;;;;;4987506;28;20465;-62
2021/03/27 03:23:26;;;;;;;8.03;7.33;;;9.00;99.90;;;;;;4950723;28;20452;-62
2021/03/27 03:26:24;;;;;;;8.20;7.27;;;9.00;99.90;;;;;;4981793;28;21040;-61
2021/03/27 03:28:56;;;;;;;8.63;7.80;;;9.00;99.90;;;;;;4949562;28;20548;-61
2021/03/27 03:31:43;;;;;;;8.47;7.30;;;9.00;99.90;;;;;;4989661;28;20455;-61
2021/03/27 03:34:22;;;;;;;6.77;6.07;;;9.00;99.90;;;;;;4990771;28;20445;-62
2021/03/27 03:37:06;;;;;;;8.27;6.47;;;9.10;99.90;;;;;;4990490;28;20799;-62
2021/03/27 03:39:59;;;;;;;6.87;6.00;;;9.10;99.90;;;;;;4988316;28;20454;-62
2021/03/27 03:42:43;;;;;;;6.80;6.10;;;9.20;99.90;;;;;;4990713;28;20462;-62
2021/03/27 03:45:18;;;;;;;7.00;5.90;;;9.20;99.90;;;;;;4990687;28;20470;-62
2021/03/27 03:48:04;;;;;;;5.60;4.47;;;9.20;99.90;;;;;;4990640;28;20450;-65
2021/03/27 03:50:41;;;;;;;3.90;2.57;;;9.10;99.90;;;;;;4981283;28;20453;-65
2021/03/27 03:53:33;;;;;;;3.97;2.07;;;8.70;99.90;;;;;;4990793;28;20430;-64
2021/03/27 03:56:18;;;;;;;1.60;1.37;;;8.50;99.90;;;;;;4990779;28;20423;-64
2021/03/27 03:58:53;;;;;;;1.87;1.50;;;8.20;99.90;;;;;;4990426;28;20454;-65
2021/03/27 04:02:16;;;;;;;1.93;1.70;;;8.10;99.90;;;;;;4989522;28;20437;-65
2021/03/27 04:04:50;;;;;;;1.30;1.20;;;8.00;99.90;;;;;;4911023;29;20458;-64
2021/03/27 04:07:25;;;;;;;1.53;1.43;;;8.00;99.90;;;;;;4911168;29;20438;-64
2021/03/27 04:09:58;;;;;;;2.27;1.20;;;7.90;99.90;;;;;;4950452;28;20477;-64
2021/03/27 04:12:53;;;;;;;1.73;1.63;;;7.80;99.90;;;;;;4990648;28;20953;-62
2021/03/27 04:15:39;;;;;;;1.93;0.70;;;7.80;99.90;;;;;;4990507;28;20798;-62
2021/03/27 04:18:05;;;;;;;1.70;1.10;;;7.70;99.90;;;;;;4990271;28;20462;-64
2021/03/27 04:20:49;;;;;;;0.90;0.90;;;7.70;99.90;;;;;;4987105;28;20447;-64
2021/03/27 04:23:30;;;;;;;1.43;1.20;;;7.60;99.90;;;;;;4984417;28;20598;-64
2021/03/27 04:26:17;;;;;;;1.17;1.07;;;7.60;99.90;;;;;;4990439;28;20466;-64
2021/03/27 04:28:57;;;;;;;1.93;1.27;;;7.50;99.90;;;;;;4990262;28;20474;-65
2021/03/27 04:31:48;;;;;;;0.80;0.80;;;7.50;99.90;;;;;;4990653;28;20430;-64
2021/03/27 04:34:20;;;;;;;1.13;1.03;;;7.50;99.90;;;;;;4972153;28;20450;-64
2021/03/27 04:37:09;;;;;;;1.83;1.10;;;7.50;99.90;;;;;;4993761;28;20446;-64
2021/03/27 04:39:49;;;;;;;1.37;1.27;;;7.50;99.90;;;;;;4993449;28;20460;-65
2021/03/27 04:42:51;;;;;;;1.43;1.20;;;7.50;99.90;;;;;;4991445;28;20799;-64
2021/03/27 04:45:38;;;;;;;1.33;1.23;;;7.40;99.90;;;;;;4993794;28;20470;-64
2021/03/27 04:48:28;;;;;;;1.43;0.80;;;7.40;99.90;;;;;;4993456;28;20468;-63
2021/03/27 04:51:15;;;;;;;1.20;1.10;;;7.30;99.90;;;;;;4993431;28;20431;-62
2021/03/27 04:54:13;;;;;;;2.10;1.00;;;7.30;99.90;;;;;;4989622;28;21163;-63
2021/03/27 04:57:10;;;;;;;1.00;0.90;;;7.30;99.90;;;;;;4993356;28;20461;-63
2021/03/27 04:59:53;;;;;;;0.90;0.90;;;7.30;99.90;;;;;;4993298;28;20481;-62
2021/03/27 05:02:32;;;;;;;0.73;0.73;;;7.20;99.90;;;;;;4990857;28;20438;-62
2021/03/27 05:05:07;;;;;;;1.33;1.23;;;7.10;99.90;;;;;;4991938;28;20525;-62
2021/03/27 05:07:47;;;;;;;0.90;0.80;;;7.00;99.90;;;;;;4993246;28;21026;-62
2021/03/27 05:10:35;;;;;;;7.13;1.27;;;7.00;99.90;;;;;;4992836;28;20824;-63
2021/03/27 05:13:17;;;;;;;1.37;1.27;;;6.90;99.90;;;;;;4990747;28;20434;-62
2021/03/27 05:15:48;;;;;;;1.00;1.00;;;6.90;99.90;;;;;;4993110;28;20438;-62
2021/03/27 05:18:32;;;;;;;1.30;1.00;;;6.90;99.90;;;;;;4992565;28;20527;-62
2021/03/27 05:21:21;;;;;;;2.23;1.17;;;7.00;99.90;;;;;;4981288;28;20442;-62
2021/03/27 05:24:15;;;;;;;1.03;1.03;;;7.00;99.90;;;;;;4990151;28;20963;-62
2021/03/27 05:27:06;;;;;;;0.87;0.87;;;7.00;99.90;;;;;;4992806;28;20457;-63
2021/03/27 05:29:32;;;;;;;1.60;0.90;;;7.10;99.90;;;;;;4992511;28;20457;-62
2021/03/27 05:32:40;;;;;;;1.10;1.00;;;7.10;99.90;;;;;;4989404;28;20438;-62
2021/03/27 05:35:26;;;;;;;1.40;1.30;;;7.10;99.90;;;;;;4971699;28;20206;-62
2021/03/27 05:37:54;;;;;;;1.33;1.23;;;7.10;99.90;;;;;;4980065;28;20451;-62
2021/03/27 05:40:47;;;;;;;1.10;1.00;;;7.10;99.90;;;;;;4985556;28;20542;-62
2021/03/27 05:43:48;;;;;;;0.90;0.90;;;7.10;99.90;;;;;;4978248;28;20815;-62
2021/03/27 05:46:45;;;;;;;1.03;0.93;;;7.20;99.90;;;;;;4992335;28;20466;-62
2021/03/27 05:49:30;;;;;;;0.90;0.80;;;7.30;99.90;;;;;;4992508;28;20439;-63
2021/03/27 05:52:11;;;;;;;1.73;1.10;;;7.30;99.90;;;;;;4990422;28;20489;-62
2021/03/27 05:54:55;;;;;;;0.77;0.77;;;7.30;99.90;;;;;;4990221;28;20470;-62
2021/03/27 05:57:47;;;;;;;0.73;0.70;;;7.30;99.90;;;;;;4991094;28;20993;-62
2021/03/27 06:00:22;;;;;;;0.70;0.70;;;7.30;99.90;;;;;;4991694;28;20446;-62
2021/03/27 06:03:08;;;;;;;1.20;0.60;;;7.20;99.90;;;;;;4979066;28;20446;-62
2021/03/27 06:06:02;;;;;;;1.37;1.10;;;7.10;99.90;;;;;;4976661;28;21107;-62
2021/03/27 06:08:35;;;;;;;0.70;0.70;;;7.10;99.90;;;;;;4992262;28;20485;-62
2021/03/27 06:11:34;;;;;;;1.53;0.97;;;7.10;99.90;;;;;;4992116;28;20438;-62
2021/03/27 06:14:11;;;;;;;0.80;0.70;;;7.10;99.90;;;;;;4989851;28;20953;-62
2021/03/27 06:17:18;;;;;;;1.60;1.17;;;7.20;99.90;;;;;;4978712;28;20427;-62
2021/03/27 06:20:28;;;;;;;1.90;0.90;;;7.10;99.90;;;;;;4979215;28;20430;-62
2021/03/27 06:23:12;;;;;;;1.30;1.20;;;7.00;99.90;;;;;;4984226;28;20438;-62
2021/03/27 06:25:56;;;;;;;0.80;0.80;;;6.70;99.90;;;;;;4979004;28;21068;-62
2021/03/27 06:28:40;;;;;;;3.53;1.40;;;6.60;99.90;;;;;;4990546;28;20446;-62
2021/03/27 06:31:33;;;;;;;0.87;0.87;;;6.60;99.90;;;;;;4975666;28;20478;-64
2021/03/27 06:34:40;;;;;;;1.20;1.10;;;6.60;99.90;;;;;;4969070;28;20526;-62
2021/03/27 06:37:24;;;;;;;0.83;0.83;;;6.60;99.90;;;;;;4984703;28;20441;-63
2021/03/27 06:40:05;;;;;;;1.30;1.20;;;6.70;99.90;;;;;;4987736;28;20433;-63
2021/03/27 06:43:15;;;;;;;1.27;1.17;;;6.70;99.90;;;;;;4981444;28;20430;-63
2021/03/27 06:45:53;;;;;;;1.00;0.90;;;6.90;99.90;;;;;;4991928;28;20544;-63
2021/03/27 06:49:07;;;;;;;1.40;1.00;;;7.20;99.90;;;;;;4991529;28;20449;-63
2021/03/27 06:51:59;;;;;;;1.73;1.10;;;7.40;99.90;;;;;;4991689;28;20437;-63
2021/03/27 06:55:11;;;;;;;2.80;1.67;;;7.70;99.90;;;;;;4990418;28;20509;-63
2021/03/27 06:58:14;;;;;;;3.00;1.10;;;7.70;99.90;;;;;;4912007;29;20466;-63
2021/03/27 07:00:55;;;;;;;1.43;0.83;;;7.60;99.90;;;;;;4972143;28;20422;-64
2021/03/27 07:03:38;;;;;;;1.07;0.97;;;7.50;99.90;;;;;;4985274;28;20434;-63
2021/03/27 07:06:24;;;;;;;1.30;1.20;;;7.40;99.90;;;;;;4984763;28;20455;-64
2021/03/27 07:08:55;;;;;;;3.07;1.67;;;7.40;99.90;;;;;;4977855;28;20537;-64
2021/03/27 07:11:24;;;;;;;1.90;1.23;;;7.40;99.90;;;;;;4991455;28;20427;-64
2021/03/27 07:14:20;;;;;;;1.30;1.20;;;7.40;99.90;;;;;;4976109;28;20432;-64
2021/03/27 07:16:55;;;;;;;1.40;1.30;;;7.50;99.90;;;;;;4982318;28;20438;-64
2021/03/27 07:19:48;;;;;;;1.50;0.93;;;7.70;99.90;;;;;;5025608;22;20481;-66
2021/03/27 07:22:32;;;;;;;1.27;1.00;;;7.90;99.90;;;;;;5007494;28;20430;-66
2021/03/27 07:25:34;;;;;;;2.53;1.10;;;8.20;99.90;;;;;;5001969;28;20508;-65
2021/03/27 07:28:00;;;;;;;2.00;1.30;;;8.80;99.90;;;;;;5010268;28;20425;-67
2021/03/27 07:31:02;;;;;;;1.87;1.03;;;9.20;99.90;;;;;;5008773;28;20437;-66
2021/03/27 07:33:46;;;;;;;1.43;1.10;;;9.20;99.90;;;;;;4995427;28;20171;-66
2021/03/27 07:36:36;;;;;;;1.27;1.10;;;9.30;99.90;;;;;;5003617;28;20432;-65
2021/03/27 07:39:21;;;;;;;2.00;1.07;;;9.60;99.90;;;;;;4973319;28;20460;-65
2021/03/27 07:42:07;;;;;;;2.93;1.20;;;10.00;99.90;;;;;;4999729;28;20789;-66
2021/03/27 07:44:56;;;;;;;2.20;1.00;;;9.90;99.90;;;;;;4990380;28;20504;-66
2021/03/27 07:47:57;;;;;;;1.47;1.10;;;10.20;99.90;;;;;;4994800;28;20514;-65
2021/03/27 07:50:39;;;;;;;1.80;1.27;;;10.20;99.90;;;;;;4957603;28;20493;-65
2021/03/27 07:53:43;;;;;;;1.33;1.07;;;10.30;99.90;;;;;;5002255;28;20470;-64
2021/03/27 07:56:36;;;;;;;1.17;1.00;;;10.30;99.90;;;;;;4999531;28;20982;-65
2021/03/27 07:59:19;;;;;;;1.03;0.80;;;10.40;99.90;;;;;;4995161;28;20457;-65
2021/03/27 08:02:08;;;;;;;1.37;1.07;;;10.70;99.90;;;;;;4997598;28;20470;-64
2021/03/27 08:04:55;;;;;;;2.50;1.13;;;10.70;99.90;;;;;;4996553;28;20455;-65
2021/03/27 08:07:43;;;;;;;1.83;1.13;;;10.90;99.90;;;;;;4996377;28;20430;-65
2021/03/27 08:10:12;;;;;;;2.30;1.10;;;11.10;99.90;;;;;;4984134;28;20980;-65
2021/03/27 08:13:19;;;;;;;2.10;1.00;;;11.40;99.90;;;;;;5000417;28;20431;-65
2021/03/27 08:16:06;;;;;;;4.60;1.00;;;11.90;99.90;;;;;;5004630;28;20579;-64
2021/03/27 08:18:55;;;;;;;2.10;0.87;;;11.70;99.90;;;;;;5004157;28;21061;-65
2021/03/27 08:21:43;;;;;;;2.40;1.13;;;11.60;99.90;;;;;;5001589;28;20500;-65
2021/03/27 08:24:36;;;;;;;2.60;1.80;;;11.10;99.90;;;;;;5008687;28;20457;-65
2021/03/27 08:27:11;;;;;;;2.57;1.00;;;10.60;99.90;;;;;;4998626;28;20446;-64
2021/03/27 08:30:01;;;;;;;1.57;1.10;;;10.00;99.90;;;;;;4994231;28;20461;-64
2021/03/27 08:32:41;;;;;;;2.17;0.90;;;9.50;99.90;;;;;;5000956;28;20440;-65
2021/03/27 08:35:24;;;;;;;4.70;1.10;;;9.20;99.90;;;;;;4993257;28;20445;-65
2021/03/27 08:38:08;;;;;;;2.10;1.03;;;9.50;99.90;;;;;;4997199;28;21250;-64
2021/03/27 08:41:04;;;;;;;2.00;0.83;;;10.20;99.90;;;;;;5001930;28;20446;-64
2021/03/27 08:44:12;;;;;;;2.47;0.90;;;10.30;99.50;;;;;;5004504;28;20903;-66
2021/03/27 08:46:50;;;;;;;1.17;0.97;;;10.00;98.90;;;;;;4994487;28;20460;-65
2021/03/27 08:49:52;;;;;;;1.93;1.10;;;9.60;98.50;;;;;;4998705;28;20556;-65
2021/03/27 08:52:55;;;;;;;1.83;1.33;;;9.40;97.60;;;;;;4999055;28;20436;-65
2021/03/27 08:55:36;;;;;;;2.00;1.10;;;9.30;98.10;;;;;;5006430;28;20818;-65
2021/03/27 08:58:25;;;;;;;1.27;1.00;;;9.40;97.70;;;;;;4991271;28;20956;-65
2021/03/27 09:01:07;;;;;;;1.10;0.70;;;9.60;97.90;;;;;;4991710;28;20426;-65
2021/03/27 09:04:11;;;;;;;1.30;1.20;;;10.10;96.00;;;;;;5002841;28;20438;-65
2021/03/27 09:07:14;;;;;;;1.20;1.10;;;10.40;94.60;;;;;;4997622;28;20540;-66
2021/03/27 09:10:03;;;;;;;0.90;0.90;;;11.60;91.90;;;;;;5008314;28;20972;-65
2021/03/27 09:12:40;;;;;;;3.00;0.97;;;12.50;91.00;;;;;;4976544;28;20428;-65
2021/03/27 09:15:15;;;;;;;1.30;0.90;;;12.60;83.70;;;;;;5009974;28;20519;-65
2021/03/27 09:18:06;;;;;;;4.83;3.97;;;12.10;82.80;;;;;;4998896;28;20438;-66
2021/03/27 09:20:50;;;;;;;1.47;1.20;;;11.90;85.20;;;;;;4992033;28;20499;-66
2021/03/27 09:23:24;;;;;;;2.93;1.33;;;11.90;83.00;;;;;;4986609;28;20433;-65
2021/03/27 09:26:12;;;;;;;2.67;2.47;;;12.70;82.20;;;;;;5002222;28;20533;-66
2021/03/27 09:29:29;;;;;;;2.43;1.47;;;14.10;78.70;;;;;;5009881;28;20460;-65
2021/03/27 09:32:00;;;;;;;1.40;1.30;;;13.70;73.80;;;;;;4975169;28;20591;-65
2021/03/27 09:35:04;;;;;;;4.50;3.47;;;13.20;77.70;;;;;;4993397;28;20435;-65
2021/03/27 09:37:54;;;;;;;1.73;1.20;;;13.30;77.10;;;;;;4993329;28;20426;-65
2021/03/27 09:40:43;;;;;;;1.83;1.00;;;12.90;76.00;;;;;;5005766;28;20492;-65
2021/03/27 09:43:58;;;;;;;1.67;1.53;;;12.80;76.80;;;;;;5001957;28;20468;-65
2021/03/27 09:46:32;;;;;;;3.63;2.03;;;12.90;78.60;;;;;;4993025;28;20469;-65
2021/03/27 09:49:19;;;;;;;1.37;1.27;;;13.30;76.70;;;;;;4994007;28;20509;-65
2021/03/27 09:52:06;;;;;;;2.47;1.60;;;14.80;70.30;;;;;;5004085;28;20425;-65
2021/03/27 09:54:48;;;;;;;2.23;1.33;;;16.80;64.10;;;;;;5011657;28;20960;-65
2021/03/27 09:57:22;;;;;;;1.80;1.70;;;15.90;59.40;;;;;;4990841;28;20438;-65
2021/03/27 10:00:09;;;;;;;1.30;1.20;;;15.00;61.00;;;;;;5004677;28;20808;-65
2021/03/27 10:03:00;;;;;;;1.40;1.30;;;14.10;62.30;;;;;;5017061;28;20499;-65
2021/03/27 10:05:50;;;;;;;1.60;1.23;;;13.30;64.80;;;;;;5003747;28;20455;-65
2021/03/27 10:08:38;;;;;;;2.40;1.70;;;13.30;66.50;;;;;;4997028;28;20456;-65
2021/03/27 10:11:17;;;;;;;1.83;1.20;;;14.00;67.10;;;;;;5001193;28;20433;-65
2021/03/27 10:13:56;;;;;;;1.33;1.20;;;14.60;64.20;;;;;;5008761;28;20444;-65
2021/03/27 10:16:31;;;;;;;1.70;1.13;;;14.00;66.00;;;;;;4992995;28;20610;-65
2021/03/27 10:19:18;;;;;;;1.43;1.30;;;14.10;65.10;;;;;;5005503;28;20475;-65
2021/03/27 10:21:59;;;;;;;2.23;1.50;;;14.20;62.70;;;;;;4990944;28;20466;-65
2021/03/27 10:24:33;;;;;;;1.40;1.27;;;13.90;61.40;;;;;;4997977;28;20449;-65
2021/03/27 10:27:24;;;;;;;5.33;1.43;;;13.50;59.50;;;;;;5011714;28;20441;-65
2021/03/27 10:30:04;;;;;;;1.43;1.33;;;13.80;59.30;;;;;;5006800;28;20453;-67
2021/03/27 10:32:30;;;;;;;2.83;2.03;;;14.50;58.40;;;;;;5008405;28;20439;-65
2021/03/27 10:35:15;;;;;;;1.83;1.30;;;14.50;58.60;;;;;;4997641;28;20434;-65
2021/03/27 10:37:55;;;;;;;2.60;1.40;;;14.90;58.10;;;;;;5004691;28;20256;-65
2021/03/27 10:40:42;;;;;;;1.93;1.27;;;15.90;57.40;;;;;;5009550;28;20573;-65
2021/03/27 10:43:44;;;;;;;2.77;1.40;;;15.50;56.30;;;;;;5006096;28;20474;-65
2021/03/27 10:46:12;;;;;;;2.20;1.10;;;14.80;56.30;;;;;;4989705;28;20465;-65
2021/03/27 10:48:41;;;;;;;1.50;1.27;;;14.10;55.90;;;;;;5005408;28;20457;-64
2021/03/27 10:51:17;;;;;;;2.63;1.53;;;13.80;56.00;;;;;;4976735;28;20959;-65
2021/03/27 10:54:00;;;;;;;2.63;1.27;;;12.90;56.70;;;;;;5006770;28;20429;-65
2021/03/27 10:56:56;;;;;;;2.10;1.47;;;12.10;59.10;;;;;;5002061;28;20431;-64
2021/03/27 10:59:56;;;;;;;2.00;1.10;;;12.00;60.80;;;;;;4995938;28;20450;-65
2021/03/27 11:02:49;;;;;;;1.53;1.43;;;12.60;58.80;;;;;;5005115;28;20439;-65
2021/03/27 11:05:25;;;;;;;3.30;1.40;;;12.90;58.80;;;;;;4991634;28;20458;-66
2021/03/27 11:08:09;;;;;;;5.23;1.30;;;14.00;58.40;;;;;;5005509;28;20883;-65
2021/03/27 11:10:52;;;;;;;5.83;1.83;;;15.60;55.90;;;;;;4992824;28;20422;-65
2021/03/27 11:13:45;;;;;;;2.10;1.13;;;15.20;56.50;;;;;;5016405;28;20432;-64
2021/03/27 11:16:29;;;;;;;1.80;1.63;;;14.50;55.90;;;;;;5006214;28;20440;-65
2021/03/27 11:19:08;;;;;;;2.77;2.07;;;14.20;56.40;;;;;;5000721;28;20493;-64
2021/03/27 11:22:11;;;;;;;2.97;1.97;;;15.60;56.30;;;;;;5009684;28;20516;-64
2021/03/27 11:24:46;;;;;;;2.37;1.40;;;17.10;54.00;;;;;;4992876;28;20469;-68
2021/03/27 11:27:20;;;;;;;1.50;1.40;;;16.20;53.40;;;;;;4992152;28;20518;-65
2021/03/27 11:30:26;;;;;;;5.77;2.27;;;15.70;54.40;;;;;;5002119;28;20532;-65
2021/03/27 11:32:54;;;;;;;5.80;2.63;;;15.90;55.00;;;;;;5003121;28;20445;-65
2021/03/27 11:36:01;;;;;;;2.40;1.13;;;16.00;53.20;;;;;;4992929;28;20466;-65
2021/03/27 11:38:39;;;;;;;1.30;1.20;;;15.70;53.20;;;;;;4996878;28;20492;-65
2021/03/27 11:41:17;;;;;;;2.40;1.20;;;15.40;53.10;;;;;;5010200;28;20460;-65
2021/03/27 11:44:14;;;;;;;1.70;1.60;;;14.60;54.30;;;;;;5012338;28;20813;-65
2021/03/27 11:46:45;;;;;;;5.37;2.60;;;14.40;56.50;;;;;;5010528;28;20445;-65
2021/03/27 11:49:14;;;;;;;105.93;21.70;;;13.70;56.50;;;;;;4997704;28;20793;-65
2021/03/27 11:51:39;;;;;;;3.10;1.97;;;13.30;58.70;;;;;;5009274;28;20426;-65
2021/03/27 11:54:39;;;;;;;4.40;1.13;;;13.10;57.90;;;;;;4997931;28;20948;-64
2021/03/27 11:57:04;;;;;;;3.47;1.43;;;12.90;58.50;;;;;;5006049;28;20230;-65
2021/03/27 12:02:47;;;;;;;2.70;1.87;;;12.30;59.40;;;;;;4999378;28;20249;-65
2021/03/27 12:05:31;;;;;;;1.67;1.30;;;12.20;60.80;;;;;;4994714;28;20512;-66
2021/03/27 12:08:18;;;;;;;3.60;1.73;;;12.00;60.40;;;;;;4998413;28;20820;-66
2021/03/27 12:11:10;;;;;;;1.73;1.53;;;11.90;61.30;;;;;;4994545;28;20536;-66
2021/03/27 12:13:41;;;;;;;2.60;2.10;;;11.90;62.30;;;;;;5002952;28;20984;-65
2021/03/27 12:16:15;;;;;;;2.00;1.40;;;12.00;62.50;;;;;;5008885;28;20804;-65
2021/03/27 12:19:00;;;;;;;5.30;2.10;;;11.90;61.40;;;;;;5012613;28;20493;-68
2021/03/27 12:21:31;;;;;;;5.90;1.17;;;12.00;61.10;;;;;;5010567;28;20430;-66
2021/03/27 12:24:34;;;;;;;2.30;1.17;;;12.20;61.90;;;;;;4986993;28;20529;-66
2021/03/27 12:27:19;;;;;;;1.97;1.50;;;12.30;60.40;;;;;;4999494;28;20434;-66
2021/03/27 12:29:49;;;;;;;3.20;2.70;;;12.10;60.60;;;;;;4994295;28;20965;-66
2021/03/27 12:32:27;;;;;;;1.97;1.70;;;12.00;61.20;;;;;;5008595;28;20972;-66
2021/03/27 12:35:04;;;;;;;2.70;1.60;;;11.70;61.10;;;;;;4994777;28;20426;-66
2021/03/27 12:37:38;;;;;;;5.20;2.60;;;11.60;64.50;;;;;;5001644;28;20425;-66
2021/03/27 12:40:31;;;;;;;4.07;3.43;;;11.70;63.20;;;;;;5000449;28;20470;-66
2021/03/27 12:43:07;;;;;;;2.87;1.80;;;12.40;62.20;;;;;;4994442;28;20438;-66
2021/03/27 12:45:49;;;;;;;2.70;2.20;;;12.80;61.00;;;;;;5003863;28;20840;-66
2021/03/27 12:48:36;;;;;;;3.10;2.30;;;12.40;59.60;;;;;;4999316;28;20892;-65
2021/03/27 12:51:10;;;;;;;4.07;3.63;;;11.90;61.20;;;;;;4999913;28;20421;-66
2021/03/27 12:53:54;;;;;;;1.70;1.53;;;11.70;61.80;;;;;;5004759;28;20437;-66
2021/03/27 12:56:42;;;;;;;3.10;2.10;;;11.70;61.00;;;;;;5007869;28;20794;-70
2021/03/27 12:59:26;;;;;;;2.53;1.30;;;11.90;61.60;;;;;;5013200;28;20429;-68
2021/03/27 13:02:03;;;;;;;3.63;1.67;;;11.90;60.60;;;;;;4996300;28;20550;-67
2021/03/27 13:05:02;;;;;;;3.27;2.20;;;12.00;61.70;;;;;;4994017;28;20867;-68
2021/03/27 13:07:49;;;;;;;1.67;1.53;;;13.70;59.30;;;;;;5010108;28;20724;-67
2021/03/27 13:10:33;;;;;;;1.83;1.57;;;16.70;55.00;;;;;;5010300;28;20442;-67
2021/03/27 13:13:17;;;;;;;8.50;2.60;;;19.20;50.60;;;;;;5011521;28;20434;-67
2021/03/27 13:16:08;;;;;;;1.67;1.57;;;19.20;48.30;;;;;;5004430;28;20433;-66
2021/03/27 13:18:36;;;;;;;2.70;1.80;;;17.40;47.50;;;;;;5019220;23;20497;-63
2021/03/27 13:21:18;;;;;;;2.27;2.07;;;15.60;50.80;;;;;;5011929;28;20433;-66
2021/03/27 13:23:51;;;;;;;3.83;1.60;;;14.30;52.50;;;;;;5011754;28;20422;-66
2021/03/27 13:26:24;;;;;;;4.80;2.20;;;13.30;54.80;;;;;;5011758;28;20536;-66
2021/03/27 13:29:37;;;;;;;3.93;1.67;;;13.00;55.60;;;;;;5012927;28;20454;-65
2021/03/27 13:32:08;;;;;;;1.47;1.30;;;12.50;56.70;;;;;;4995324;28;20512;-65
2021/03/27 13:34:42;;;;;;;5.20;2.30;;;12.20;57.70;;;;;;5007202;28;20932;-66
2021/03/27 13:37:13;;;;;;;2.20;1.50;;;12.50;58.10;;;;;;4993532;28;20796;-66
2021/03/27 13:40:17;;;;;;;2.33;1.30;;;14.00;56.30;;;;;;5000615;28;20446;-65
2021/03/27 13:42:54;;;;;;;2.27;1.73;;;15.90;52.60;;;;;;4995731;28;20464;-66
2021/03/27 13:45:29;;;;;;;2.07;1.77;;;17.20;50.60;;;;;;5009858;28;20488;-66
2021/03/27 13:48:27;;;;;;;3.00;1.70;;;18.30;48.70;;;;;;5011746;28;20468;-66
2021/03/27 13:51:11;;;;;;;2.60;1.77;;;18.00;47.60;;;;;;4997723;28;20463;-66
2021/03/27 13:53:45;;;;;;;2.53;1.50;;;17.60;48.50;;;;;;5006161;28;20429;-65
2021/03/27 13:56:20;;;;;;;1.90;1.30;;;16.90;49.10;;;;;;4991916;28;20476;-66
2021/03/27 13:59:19;;;;;;;2.70;1.67;;;16.20;50.50;;;;;;4998325;28;20468;-66
2021/03/27 14:02:12;;;;;;;2.60;1.20;;;15.30;51.70;;;;;;5011483;28;21017;-65
2021/03/27 14:04:42;;;;;;;3.47;2.20;;;14.60;52.60;;;;;;4998031;28;20469;-64
2021/03/27 14:07:44;;;;;;;2.73;1.77;;;14.20;53.10;;;;;;4996306;28;20470;-65
2021/03/27 14:10:32;;;;;;;3.27;2.03;;;14.30;53.70;;;;;;5008303;28;20453;-65
2021/03/27 14:13:20;;;;;;;2.07;1.53;;;14.50;53.30;;;;;;4999161;28;20445;-65
2021/03/27 14:16:09;;;;;;;6.07;1.80;;;14.30;52.90;;;;;;5005195;28;20442;-66
2021/03/27 14:18:57;;;;;;;1.90;1.73;;;13.70;53.70;;;;;;4988867;28;20475;-65
2021/03/27 14:21:49;;;;;;;4.73;2.10;;;13.40;55.10;;;;;;5004920;28;20947;-65
2021/03/27 14:24:39;;;;;;;3.50;1.57;;;13.40;55.50;;;;;;4999102;28;20453;-65